sensor_id;sensor_type;location;lat;lon;timestamp;P1;durP1;ratioP1;P2;durP2;ratioP2
7231;SDS011;3657;49.630;11.018;2023-03-12T00:00:09;10.40;;;9.80;;
7231;SDS011;3657;49.630;11.018;2023-03-12T00:02:37;10.53;;;9.93;;
7231;SDS011;3657;49.630;11.018;2023-03-12T00:05:03;9.80;;;9.33;;
7231;SDS011;3657;49.630;11.018;2023-03-12T00:07:31;11.23;;;10.57;;
7231;SDS011;3657;49.630;11.018;2023-03-12T00:10:00;10.37;;;9.93;;
7231;SDS011;3657;49.630;11.018;2023-03-12T00:12:27;11.10;;;10.53;;
7231;SDS011;3657;49.630;11.018;2023-03-12T00:14:53;11.90;;;11.27;;
7231;SDS011;3657;49.630;11.018;2023-03-12T00:17:21;10.97;;;10.37;;
7231;SDS011;3657;49.630;11.018;2023-03-12T00:19:50;11.17;;;10.50;;
7231;SDS011;3657;49.630;11.018;2023-03-12T00:22:17;10.33;;;9.93;;
7231;SDS011;3657;49.630;11.018;2023-03-12T00:24:48;10.90;;;10.50;;
7231;SDS011;3657;49.630;11.018;2023-03-12T00:27:15;11.27;;;10.57;;
7231;SDS011;3657;49.630;11.018;2023-03-12T00:29:42;12.07;;;11.37;;
7231;SDS011;3657;49.630;11.018;2023-03-12T00:32:09;11.40;;;10.80;;
7231;SDS011;3657;49.630;11.018;2023-03-12T00:34:37;11.37;;;10.87;;
7231;SDS011;3657;49.630;11.018;2023-03-12T00:37:03;10.73;;;10.30;;
7231;SDS011;3657;49.630;11.018;2023-03-12T00:39:32;10.80;;;10.20;;
7231;SDS011;3657;49.630;11.018;2023-03-12T00:41:59;11.53;;;11.03;;
7231;SDS011;3657;49.630;11.018;2023-03-12T00:44:26;12.70;;;12.10;;
7231;SDS011;3657;49.630;11.018;2023-03-12T00:46:52;12.13;;;11.43;;
7231;SDS011;3657;49.630;11.018;2023-03-12T00:49:19;11.87;;;11.23;;
7231;SDS011;3657;49.630;11.018;2023-03-12T00:51:47;11.57;;;11.07;;
7231;SDS011;3657;49.630;11.018;2023-03-12T00:54:13;11.87;;;11.27;;
7231;SDS011;3657;49.630;11.018;2023-03-12T00:56:40;12.13;;;11.43;;
7231;SDS011;3657;49.630;11.018;2023-03-12T00:59:07;12.13;;;11.43;;
7231;SDS011;3657;49.630;11.018;2023-03-12T01:01:33;11.90;;;11.30;;
7231;SDS011;3657;49.630;11.018;2023-03-12T01:04:00;13.53;;;12.53;;
7231;SDS011;3657;49.630;11.018;2023-03-12T01:06:27;13.07;;;12.30;;
7231;SDS011;3657;49.630;11.018;2023-03-12T01:08:55;11.57;;;10.97;;
7231;SDS011;3657;49.630;11.018;2023-03-12T01:11:21;12.37;;;11.83;;
7231;SDS011;3657;49.630;11.018;2023-03-12T01:13:48;12.57;;;11.87;;
7231;SDS011;3657;49.630;11.018;2023-03-12T01:16:16;13.17;;;12.37;;
7231;SDS011;3657;49.630;11.018;2023-03-12T01:18:43;12.90;;;12.10;;
7231;SDS011;3657;49.630;11.018;2023-03-12T01:21:09;12.50;;;11.90;;
7231;SDS011;3657;49.630;11.018;2023-03-12T01:23:36;12.53;;;11.83;;
7231;SDS011;3657;49.630;11.018;2023-03-12T01:26:04;13.07;;;12.37;;
7231;SDS011;3657;49.630;11.018;2023-03-12T01:28:31;13.27;;;12.47;;
7231;SDS011;3657;49.630;11.018;2023-03-12T01:31:04;13.33;;;12.63;;
7231;SDS011;3657;49.630;11.018;2023-03-12T01:33:32;13.20;;;12.37;;
7231;SDS011;3657;49.630;11.018;2023-03-12T01:35:58;13.70;;;12.90;;
7231;SDS011;3657;49.630;11.018;2023-03-12T01:38:25;12.73;;;12.03;;
7231;SDS011;3657;49.630;11.018;2023-03-12T01:40:52;12.60;;;12.00;;
7231;SDS011;3657;49.630;11.018;2023-03-12T01:43:23;14.17;;;13.10;;
7231;SDS011;3657;49.630;11.018;2023-03-12T01:45:57;13.97;;;13.17;;
7231;SDS011;3657;49.630;11.018;2023-03-12T01:48:31;13.23;;;12.40;;
7231;SDS011;3657;49.630;11.018;2023-03-12T01:51:02;13.20;;;12.60;;
7231;SDS011;3657;49.630;11.018;2023-03-12T01:53:29;14.03;;;13.23;;
7231;SDS011;3657;49.630;11.018;2023-03-12T01:55:57;13.10;;;12.43;;
7231;SDS011;3657;49.630;11.018;2023-03-12T01:58:26;14.07;;;13.17;;
7231;SDS011;3657;49.630;11.018;2023-03-12T02:00:56;13.43;;;12.63;;
7231;SDS011;3657;49.630;11.018;2023-03-12T02:03:23;13.83;;;13.10;;
7231;SDS011;3657;49.630;11.018;2023-03-12T02:05:50;13.37;;;12.67;;
7231;SDS011;3657;49.630;11.018;2023-03-12T02:08:18;14.17;;;13.27;;
7231;SDS011;3657;49.630;11.018;2023-03-12T02:10:46;15.53;;;14.33;;
7231;SDS011;3657;49.630;11.018;2023-03-12T02:13:13;14.07;;;13.33;;
7231;SDS011;3657;49.630;11.018;2023-03-12T02:15:41;14.03;;;13.23;;
7231;SDS011;3657;49.630;11.018;2023-03-12T02:18:09;14.13;;;13.27;;
7231;SDS011;3657;49.630;11.018;2023-03-12T02:20:40;13.60;;;12.80;;
7231;SDS011;3657;49.630;11.018;2023-03-12T02:23:15;14.97;;;14.00;;
7231;SDS011;3657;49.630;11.018;2023-03-12T02:25:50;14.47;;;13.50;;
7231;SDS011;3657;49.630;11.018;2023-03-12T02:28:19;14.27;;;13.40;;
7231;SDS011;3657;49.630;11.018;2023-03-12T02:30:49;13.37;;;12.57;;
7231;SDS011;3657;49.630;11.018;2023-03-12T02:33:18;15.10;;;14.23;;
7231;SDS011;3657;49.630;11.018;2023-03-12T02:35:45;14.73;;;13.83;;
7231;SDS011;3657;49.630;11.018;2023-03-12T02:38:31;14.23;;;13.43;;
7231;SDS011;3657;49.630;11.018;2023-03-12T02:41:04;16.13;;;14.97;;
7231;SDS011;3657;49.630;11.018;2023-03-12T02:43:39;14.67;;;13.80;;
7231;SDS011;3657;49.630;11.018;2023-03-12T02:46:06;14.73;;;13.77;;
7231;SDS011;3657;49.630;11.018;2023-03-12T02:48:33;15.17;;;14.13;;
7231;SDS011;3657;49.630;11.018;2023-03-12T02:51:00;15.40;;;14.03;;
7231;SDS011;3657;49.630;11.018;2023-03-12T02:53:27;15.20;;;14.30;;
7231;SDS011;3657;49.630;11.018;2023-03-12T02:55:54;14.13;;;13.33;;
7231;SDS011;3657;49.630;11.018;2023-03-12T02:58:23;15.10;;;14.10;;
7231;SDS011;3657;49.630;11.018;2023-03-12T03:00:50;14.57;;;13.67;;
7231;SDS011;3657;49.630;11.018;2023-03-12T03:03:16;14.90;;;13.83;;
7231;SDS011;3657;49.630;11.018;2023-03-12T03:05:43;14.73;;;13.77;;
7231;SDS011;3657;49.630;11.018;2023-03-12T03:08:10;15.20;;;14.20;;
7231;SDS011;3657;49.630;11.018;2023-03-12T03:10:37;15.93;;;14.93;;
7231;SDS011;3657;49.630;11.018;2023-03-12T03:13:03;15.80;;;14.60;;
7231;SDS011;3657;49.630;11.018;2023-03-12T03:15:31;16.00;;;15.00;;
7231;SDS011;3657;49.630;11.018;2023-03-12T03:17:58;14.43;;;13.70;;
7231;SDS011;3657;49.630;11.018;2023-03-12T03:20:27;15.90;;;14.80;;
7231;SDS011;3657;49.630;11.018;2023-03-12T03:22:54;17.57;;;16.33;;
7231;SDS011;3657;49.630;11.018;2023-03-12T03:25:21;17.93;;;16.83;;
7231;SDS011;3657;49.630;11.018;2023-03-12T03:27:48;17.53;;;16.20;;
7231;SDS011;3657;49.630;11.018;2023-03-12T03:30:14;17.53;;;16.33;;
7231;SDS011;3657;49.630;11.018;2023-03-12T03:32:43;17.40;;;16.20;;
7231;SDS011;3657;49.630;11.018;2023-03-12T03:35:10;16.63;;;15.60;;
7231;SDS011;3657;49.630;11.018;2023-03-12T03:37:36;17.10;;;16.03;;
7231;SDS011;3657;49.630;11.018;2023-03-12T03:40:03;16.77;;;15.67;;
7231;SDS011;3657;49.630;11.018;2023-03-12T03:42:33;17.77;;;16.53;;
7231;SDS011;3657;49.630;11.018;2023-03-12T03:45:00;16.57;;;15.37;;
7231;SDS011;3657;49.630;11.018;2023-03-12T03:47:27;16.60;;;15.50;;
7231;SDS011;3657;49.630;11.018;2023-03-12T03:49:54;15.67;;;14.70;;
7231;SDS011;3657;49.630;11.018;2023-03-12T03:52:21;17.93;;;16.60;;
7231;SDS011;3657;49.630;11.018;2023-03-12T03:54:48;16.67;;;15.57;;
7231;SDS011;3657;49.630;11.018;2023-03-12T03:57:14;15.77;;;14.87;;
7231;SDS011;3657;49.630;11.018;2023-03-12T03:59:41;17.77;;;16.57;;
7231;SDS011;3657;49.630;11.018;2023-03-12T04:02:08;15.53;;;14.53;;
7231;SDS011;3657;49.630;11.018;2023-03-12T04:04:34;16.50;;;15.23;;
7231;SDS011;3657;49.630;11.018;2023-03-12T04:07:02;15.17;;;14.30;;
7231;SDS011;3657;49.630;11.018;2023-03-12T04:09:29;15.87;;;14.60;;
7231;SDS011;3657;49.630;11.018;2023-03-12T04:11:56;15.20;;;14.30;;
7231;SDS011;3657;49.630;11.018;2023-03-12T04:14:22;15.40;;;14.37;;
7231;SDS011;3657;49.630;11.018;2023-03-12T04:16:49;15.17;;;14.37;;
7231;SDS011;3657;49.630;11.018;2023-03-12T04:19:16;15.77;;;14.77;;
7231;SDS011;3657;49.630;11.018;2023-03-12T04:21:42;15.50;;;14.50;;
7231;SDS011;3657;49.630;11.018;2023-03-12T04:24:12;15.83;;;14.80;;
7231;SDS011;3657;49.630;11.018;2023-03-12T04:26:40;16.70;;;15.23;;
7231;SDS011;3657;49.630;11.018;2023-03-12T04:29:07;14.43;;;13.53;;
7231;SDS011;3657;49.630;11.018;2023-03-12T04:31:34;16.53;;;15.30;;
7231;SDS011;3657;49.630;11.018;2023-03-12T04:34:00;15.70;;;14.60;;
7231;SDS011;3657;49.630;11.018;2023-03-12T04:36:27;15.67;;;14.63;;
7231;SDS011;3657;49.630;11.018;2023-03-12T04:38:54;15.07;;;14.07;;
7231;SDS011;3657;49.630;11.018;2023-03-12T04:41:22;15.77;;;14.63;;
7231;SDS011;3657;49.630;11.018;2023-03-12T04:43:49;16.53;;;15.37;;
7231;SDS011;3657;49.630;11.018;2023-03-12T04:46:16;16.03;;;15.03;;
7231;SDS011;3657;49.630;11.018;2023-03-12T04:48:42;16.13;;;15.07;;
7231;SDS011;3657;49.630;11.018;2023-03-12T04:51:09;15.90;;;14.77;;
7231;SDS011;3657;49.630;11.018;2023-03-12T04:53:36;15.70;;;14.57;;
7231;SDS011;3657;49.630;11.018;2023-03-12T04:56:04;14.93;;;14.13;;
7231;SDS011;3657;49.630;11.018;2023-03-12T04:58:32;16.10;;;15.10;;
7231;SDS011;3657;49.630;11.018;2023-03-12T05:00:59;16.83;;;15.67;;
7231;SDS011;3657;49.630;11.018;2023-03-12T05:03:26;16.07;;;15.10;;
7231;SDS011;3657;49.630;11.018;2023-03-12T05:05:53;16.83;;;15.57;;
7231;SDS011;3657;49.630;11.018;2023-03-12T05:08:20;15.60;;;14.70;;
7231;SDS011;3657;49.630;11.018;2023-03-12T05:10:46;14.60;;;13.70;;
7231;SDS011;3657;49.630;11.018;2023-03-12T05:13:13;15.77;;;14.87;;
7231;SDS011;3657;49.630;11.018;2023-03-12T05:15:42;15.80;;;14.60;;
7231;SDS011;3657;49.630;11.018;2023-03-12T05:18:09;15.67;;;14.67;;
7231;SDS011;3657;49.630;11.018;2023-03-12T05:20:36;15.37;;;14.47;;
7231;SDS011;3657;49.630;11.018;2023-03-12T05:23:03;15.63;;;14.60;;
7231;SDS011;3657;49.630;11.018;2023-03-12T05:25:30;15.50;;;14.50;;
7231;SDS011;3657;49.630;11.018;2023-03-12T05:27:57;15.53;;;14.57;;
7231;SDS011;3657;49.630;11.018;2023-03-12T05:30:23;15.50;;;14.60;;
7231;SDS011;3657;49.630;11.018;2023-03-12T05:32:51;14.97;;;14.07;;
7231;SDS011;3657;49.630;11.018;2023-03-12T05:35:18;15.03;;;14.10;;
7231;SDS011;3657;49.630;11.018;2023-03-12T05:37:44;15.17;;;14.20;;
7231;SDS011;3657;49.630;11.018;2023-03-12T05:40:12;16.07;;;14.87;;
7231;SDS011;3657;49.630;11.018;2023-03-12T05:42:38;15.33;;;14.40;;
7231;SDS011;3657;49.630;11.018;2023-03-12T05:45:06;14.53;;;13.70;;
7231;SDS011;3657;49.630;11.018;2023-03-12T05:47:33;14.93;;;14.13;;
7231;SDS011;3657;49.630;11.018;2023-03-12T05:50:01;15.40;;;14.40;;
7231;SDS011;3657;49.630;11.018;2023-03-12T05:52:28;14.77;;;13.87;;
7231;SDS011;3657;49.630;11.018;2023-03-12T05:54:55;15.90;;;14.73;;
7231;SDS011;3657;49.630;11.018;2023-03-12T05:57:21;15.27;;;14.17;;
7231;SDS011;3657;49.630;11.018;2023-03-12T05:59:48;15.23;;;14.27;;
7231;SDS011;3657;49.630;11.018;2023-03-12T06:02:14;14.47;;;13.40;;
7231;SDS011;3657;49.630;11.018;2023-03-12T06:04:41;13.57;;;12.87;;
7231;SDS011;3657;49.630;11.018;2023-03-12T06:07:09;14.73;;;13.83;;
7231;SDS011;3657;49.630;11.018;2023-03-12T06:09:36;14.73;;;13.73;;
7231;SDS011;3657;49.630;11.018;2023-03-12T06:12:03;14.47;;;13.73;;
7231;SDS011;3657;49.630;11.018;2023-03-12T06:14:30;13.70;;;12.90;;
7231;SDS011;3657;49.630;11.018;2023-03-12T06:16:56;14.17;;;13.30;;
7231;SDS011;3657;49.630;11.018;2023-03-12T06:19:23;14.37;;;13.57;;
7231;SDS011;3657;49.630;11.018;2023-03-12T06:21:50;14.20;;;13.33;;
7231;SDS011;3657;49.630;11.018;2023-03-12T06:24:18;13.30;;;12.40;;
7231;SDS011;3657;49.630;11.018;2023-03-12T06:26:44;14.17;;;13.37;;
7231;SDS011;3657;49.630;11.018;2023-03-12T06:29:11;14.97;;;14.07;;
7231;SDS011;3657;49.630;11.018;2023-03-12T06:31:38;14.17;;;13.20;;
7231;SDS011;3657;49.630;11.018;2023-03-12T06:34:06;13.50;;;12.80;;
7231;SDS011;3657;49.630;11.018;2023-03-12T06:36:34;14.33;;;13.40;;
7231;SDS011;3657;49.630;11.018;2023-03-12T06:39:00;13.57;;;12.77;;
7231;SDS011;3657;49.630;11.018;2023-03-12T06:41:31;14.87;;;13.97;;
7231;SDS011;3657;49.630;11.018;2023-03-12T06:43:58;13.63;;;12.83;;
7231;SDS011;3657;49.630;11.018;2023-03-12T06:46:27;14.07;;;12.97;;
7231;SDS011;3657;49.630;11.018;2023-03-12T06:48:54;18.50;;;17.10;;
7231;SDS011;3657;49.630;11.018;2023-03-12T06:51:21;14.53;;;13.73;;
7231;SDS011;3657;49.630;11.018;2023-03-12T06:53:47;15.30;;;14.33;;
7231;SDS011;3657;49.630;11.018;2023-03-12T06:56:14;14.00;;;13.00;;
7231;SDS011;3657;49.630;11.018;2023-03-12T06:58:42;15.53;;;14.43;;
7231;SDS011;3657;49.630;11.018;2023-03-12T07:01:09;15.13;;;14.20;;
7231;SDS011;3657;49.630;11.018;2023-03-12T07:03:36;14.77;;;13.60;;
7231;SDS011;3657;49.630;11.018;2023-03-12T07:06:03;13.97;;;13.00;;
7231;SDS011;3657;49.630;11.018;2023-03-12T07:08:37;12.53;;;11.90;;
7231;SDS011;3657;49.630;11.018;2023-03-12T07:11:03;12.40;;;11.70;;
7231;SDS011;3657;49.630;11.018;2023-03-12T07:13:30;11.03;;;10.33;;
7231;SDS011;3657;49.630;11.018;2023-03-12T07:15:58;11.07;;;10.50;;
7231;SDS011;3657;49.630;11.018;2023-03-12T07:18:25;11.40;;;10.80;;
7231;SDS011;3657;49.630;11.018;2023-03-12T07:20:52;11.60;;;11.00;;
7231;SDS011;3657;49.630;11.018;2023-03-12T07:23:19;12.10;;;11.03;;
7231;SDS011;3657;49.630;11.018;2023-03-12T07:25:46;12.97;;;11.97;;
7231;SDS011;3657;49.630;11.018;2023-03-12T07:28:13;11.33;;;10.70;;
7231;SDS011;3657;49.630;11.018;2023-03-12T07:30:39;10.80;;;10.27;;
7231;SDS011;3657;49.630;11.018;2023-03-12T07:33:09;10.47;;;9.87;;
7231;SDS011;3657;49.630;11.018;2023-03-12T07:35:38;10.70;;;10.17;;
7231;SDS011;3657;49.630;11.018;2023-03-12T07:38:05;9.80;;;9.40;;
7231;SDS011;3657;49.630;11.018;2023-03-12T07:40:32;10.77;;;10.23;;
7231;SDS011;3657;49.630;11.018;2023-03-12T07:42:59;10.67;;;10.07;;
7231;SDS011;3657;49.630;11.018;2023-03-12T07:45:25;10.20;;;9.70;;
7231;SDS011;3657;49.630;11.018;2023-03-12T07:47:52;9.60;;;9.10;;
7231;SDS011;3657;49.630;11.018;2023-03-12T07:50:20;10.70;;;10.10;;
7231;SDS011;3657;49.630;11.018;2023-03-12T07:52:48;10.03;;;9.53;;
7231;SDS011;3657;49.630;11.018;2023-03-12T07:55:15;10.53;;;9.83;;
7231;SDS011;3657;49.630;11.018;2023-03-12T07:57:41;10.20;;;9.73;;
7231;SDS011;3657;49.630;11.018;2023-03-12T08:00:09;10.30;;;9.87;;
7231;SDS011;3657;49.630;11.018;2023-03-12T08:02:36;9.33;;;8.83;;
7231;SDS011;3657;49.630;11.018;2023-03-12T08:05:03;9.03;;;8.63;;
7231;SDS011;3657;49.630;11.018;2023-03-12T08:07:32;10.70;;;10.10;;
7231;SDS011;3657;49.630;11.018;2023-03-12T08:09:59;9.83;;;9.33;;
7231;SDS011;3657;49.630;11.018;2023-03-12T08:12:26;9.97;;;9.27;;
7231;SDS011;3657;49.630;11.018;2023-03-12T08:14:53;10.83;;;10.23;;
7231;SDS011;3657;49.630;11.018;2023-03-12T08:17:20;10.03;;;9.63;;
7231;SDS011;3657;49.630;11.018;2023-03-12T08:19:47;8.10;;;7.77;;
7231;SDS011;3657;49.630;11.018;2023-03-12T08:22:14;9.60;;;9.00;;
7231;SDS011;3657;49.630;11.018;2023-03-12T08:24:42;9.80;;;9.30;;
7231;SDS011;3657;49.630;11.018;2023-03-12T08:27:09;9.80;;;9.30;;
7231;SDS011;3657;49.630;11.018;2023-03-12T08:29:36;10.67;;;10.07;;
7231;SDS011;3657;49.630;11.018;2023-03-12T08:32:03;10.43;;;9.70;;
7231;SDS011;3657;49.630;11.018;2023-03-12T08:34:30;9.87;;;9.23;;
7231;SDS011;3657;49.630;11.018;2023-03-12T08:36:57;8.90;;;8.50;;
7231;SDS011;3657;49.630;11.018;2023-03-12T08:39:24;10.70;;;9.80;;
7231;SDS011;3657;49.630;11.018;2023-03-12T08:41:52;9.27;;;8.77;;
7231;SDS011;3657;49.630;11.018;2023-03-12T08:44:19;9.57;;;9.17;;
7231;SDS011;3657;49.630;11.018;2023-03-12T08:46:46;9.23;;;8.63;;
7231;SDS011;3657;49.630;11.018;2023-03-12T08:49:12;9.30;;;8.83;;
7231;SDS011;3657;49.630;11.018;2023-03-12T08:51:39;8.47;;;8.07;;
7231;SDS011;3657;49.630;11.018;2023-03-12T08:54:06;8.80;;;8.27;;
7231;SDS011;3657;49.630;11.018;2023-03-12T08:56:33;8.77;;;8.27;;
7231;SDS011;3657;49.630;11.018;2023-03-12T08:59:02;8.77;;;8.13;;
7231;SDS011;3657;49.630;11.018;2023-03-12T09:01:29;9.27;;;8.80;;
7231;SDS011;3657;49.630;11.018;2023-03-12T09:03:55;8.80;;;8.40;;
7231;SDS011;3657;49.630;11.018;2023-03-12T09:06:22;9.27;;;8.87;;
7231;SDS011;3657;49.630;11.018;2023-03-12T09:08:48;10.40;;;9.57;;
7231;SDS011;3657;49.630;11.018;2023-03-12T09:11:15;8.90;;;8.60;;
7231;SDS011;3657;49.630;11.018;2023-03-12T09:13:42;9.93;;;9.33;;
7231;SDS011;3657;49.630;11.018;2023-03-12T09:16:11;8.67;;;8.27;;
7231;SDS011;3657;49.630;11.018;2023-03-12T09:18:37;10.00;;;9.60;;
7231;SDS011;3657;49.630;11.018;2023-03-12T09:21:04;8.83;;;8.47;;
7231;SDS011;3657;49.630;11.018;2023-03-12T09:23:31;8.73;;;8.33;;
7231;SDS011;3657;49.630;11.018;2023-03-12T09:25:58;8.50;;;8.20;;
7231;SDS011;3657;49.630;11.018;2023-03-12T09:28:24;9.00;;;8.70;;
7231;SDS011;3657;49.630;11.018;2023-03-12T09:30:51;8.70;;;8.30;;
7231;SDS011;3657;49.630;11.018;2023-03-12T09:33:19;9.93;;;9.23;;
7231;SDS011;3657;49.630;11.018;2023-03-12T09:35:54;8.73;;;8.43;;
7231;SDS011;3657;49.630;11.018;2023-03-12T09:38:21;9.77;;;9.17;;
7231;SDS011;3657;49.630;11.018;2023-03-12T09:40:47;9.33;;;8.80;;
7231;SDS011;3657;49.630;11.018;2023-03-12T09:43:16;11.47;;;10.63;;
7231;SDS011;3657;49.630;11.018;2023-03-12T09:45:47;10.90;;;10.17;;
7231;SDS011;3657;49.630;11.018;2023-03-12T09:48:16;10.47;;;9.77;;
7231;SDS011;3657;49.630;11.018;2023-03-12T09:50:48;9.43;;;8.93;;
7231;SDS011;3657;49.630;11.018;2023-03-12T09:53:19;9.20;;;8.70;;
7231;SDS011;3657;49.630;11.018;2023-03-12T09:55:52;8.50;;;8.10;;
7231;SDS011;3657;49.630;11.018;2023-03-12T09:58:23;8.70;;;8.30;;
7231;SDS011;3657;49.630;11.018;2023-03-12T10:00:54;9.67;;;9.27;;
7231;SDS011;3657;49.630;11.018;2023-03-12T10:03:35;8.97;;;8.57;;
7231;SDS011;3657;49.630;11.018;2023-03-12T10:06:18;9.00;;;8.60;;
7231;SDS011;3657;49.630;11.018;2023-03-12T10:08:49;8.57;;;8.17;;
7231;SDS011;3657;49.630;11.018;2023-03-12T10:11:31;8.27;;;7.90;;
7231;SDS011;3657;49.630;11.018;2023-03-12T10:14:06;9.37;;;8.87;;
7231;SDS011;3657;49.630;11.018;2023-03-12T10:16:50;8.37;;;8.07;;
7231;SDS011;3657;49.630;11.018;2023-03-12T10:19:27;9.10;;;8.70;;
7231;SDS011;3657;49.630;11.018;2023-03-12T10:22:14;9.17;;;8.60;;
7231;SDS011;3657;49.630;11.018;2023-03-12T10:24:53;9.27;;;8.80;;
7231;SDS011;3657;49.630;11.018;2023-03-12T10:27:27;10.40;;;9.60;;
7231;SDS011;3657;49.630;11.018;2023-03-12T10:29:54;9.43;;;8.83;;
7231;SDS011;3657;49.630;11.018;2023-03-12T10:32:24;9.10;;;8.60;;
7231;SDS011;3657;49.630;11.018;2023-03-12T10:34:59;8.77;;;8.17;;
7231;SDS011;3657;49.630;11.018;2023-03-12T10:37:30;8.37;;;7.97;;
7231;SDS011;3657;49.630;11.018;2023-03-12T10:40:01;8.43;;;7.97;;
7231;SDS011;3657;49.630;11.018;2023-03-12T10:42:30;8.90;;;8.40;;
7231;SDS011;3657;49.630;11.018;2023-03-12T10:44:58;7.87;;;7.57;;
7231;SDS011;3657;49.630;11.018;2023-03-12T10:47:32;8.03;;;7.70;;
7231;SDS011;3657;49.630;11.018;2023-03-12T10:50:12;8.50;;;8.17;;
7231;SDS011;3657;49.630;11.018;2023-03-12T10:52:41;8.63;;;8.23;;
7231;SDS011;3657;49.630;11.018;2023-03-12T10:55:10;9.60;;;8.90;;
7231;SDS011;3657;49.630;11.018;2023-03-12T10:57:39;9.83;;;9.33;;
7231;SDS011;3657;49.630;11.018;2023-03-12T11:00:08;9.40;;;8.90;;
7231;SDS011;3657;49.630;11.018;2023-03-12T11:02:42;10.07;;;9.50;;
7231;SDS011;3657;49.630;11.018;2023-03-12T11:05:21;9.40;;;8.87;;
7231;SDS011;3657;49.630;11.018;2023-03-12T11:07:50;9.17;;;8.37;;
7231;SDS011;3657;49.630;11.018;2023-03-12T11:10:21;9.93;;;9.13;;
7231;SDS011;3657;49.630;11.018;2023-03-12T11:12:51;8.87;;;8.33;;
7231;SDS011;3657;49.630;11.018;2023-03-12T11:15:22;9.77;;;8.97;;
7231;SDS011;3657;49.630;11.018;2023-03-12T11:17:52;8.80;;;8.40;;
7231;SDS011;3657;49.630;11.018;2023-03-12T11:20:52;10.10;;;9.60;;
7231;SDS011;3657;49.630;11.018;2023-03-12T11:23:21;8.70;;;8.20;;
7231;SDS011;3657;49.630;11.018;2023-03-12T11:25:53;9.83;;;9.23;;
7231;SDS011;3657;49.630;11.018;2023-03-12T11:28:23;9.60;;;8.83;;
7231;SDS011;3657;49.630;11.018;2023-03-12T11:30:53;9.00;;;8.60;;
7231;SDS011;3657;49.630;11.018;2023-03-12T11:33:23;9.63;;;9.03;;
7231;SDS011;3657;49.630;11.018;2023-03-12T11:35:54;9.10;;;8.73;;
7231;SDS011;3657;49.630;11.018;2023-03-12T11:38:33;9.33;;;8.93;;
7231;SDS011;3657;49.630;11.018;2023-03-12T11:41:11;10.07;;;9.47;;
7231;SDS011;3657;49.630;11.018;2023-03-12T11:43:52;9.50;;;9.10;;
7231;SDS011;3657;49.630;11.018;2023-03-12T11:46:37;10.20;;;9.70;;
7231;SDS011;3657;49.630;11.018;2023-03-12T11:49:16;10.93;;;10.13;;
7231;SDS011;3657;49.630;11.018;2023-03-12T11:51:54;10.57;;;9.87;;
7231;SDS011;3657;49.630;11.018;2023-03-12T11:54:30;10.20;;;9.70;;
7231;SDS011;3657;49.630;11.018;2023-03-12T11:57:13;10.33;;;9.83;;
7231;SDS011;3657;49.630;11.018;2023-03-12T11:59:49;9.63;;;9.23;;
7231;SDS011;3657;49.630;11.018;2023-03-12T12:05:33;10.07;;;9.27;;
7231;SDS011;3657;49.630;11.018;2023-03-12T12:08:09;10.60;;;9.57;;
7231;SDS011;3657;49.630;11.018;2023-03-12T12:10:45;10.27;;;9.70;;
7231;SDS011;3657;49.630;11.018;2023-03-12T12:13:21;11.13;;;10.53;;
7231;SDS011;3657;49.630;11.018;2023-03-12T12:15:57;10.40;;;9.60;;
7231;SDS011;3657;49.630;11.018;2023-03-12T12:18:34;9.70;;;9.30;;
7231;SDS011;3657;49.630;11.018;2023-03-12T12:21:18;11.20;;;10.60;;
7231;SDS011;3657;49.630;11.018;2023-03-12T12:23:57;10.80;;;10.20;;
7231;SDS011;3657;49.630;11.018;2023-03-12T12:26:31;8.17;;;7.67;;
7231;SDS011;3657;49.630;11.018;2023-03-12T12:29:14;10.03;;;9.47;;
7231;SDS011;3657;49.630;11.018;2023-03-12T12:31:49;11.63;;;10.90;;
7231;SDS011;3657;49.630;11.018;2023-03-12T12:34:26;10.67;;;9.70;;
7231;SDS011;3657;49.630;11.018;2023-03-12T12:37:13;15.57;;;14.03;;
7231;SDS011;3657;49.630;11.018;2023-03-12T12:39:48;11.93;;;10.97;;
7231;SDS011;3657;49.630;11.018;2023-03-12T12:42:20;10.13;;;9.53;;
7231;SDS011;3657;49.630;11.018;2023-03-12T12:44:52;11.93;;;11.03;;
7231;SDS011;3657;49.630;11.018;2023-03-12T12:47:27;10.37;;;9.87;;
7231;SDS011;3657;49.630;11.018;2023-03-12T12:49:59;10.63;;;9.90;;
7231;SDS011;3657;49.630;11.018;2023-03-12T12:52:28;11.27;;;10.43;;
7231;SDS011;3657;49.630;11.018;2023-03-12T12:54:57;10.33;;;9.73;;
7231;SDS011;3657;49.630;11.018;2023-03-12T12:57:31;10.00;;;9.60;;
7231;SDS011;3657;49.630;11.018;2023-03-12T13:00:08;11.00;;;10.40;;
7231;SDS011;3657;49.630;11.018;2023-03-12T13:02:44;14.20;;;13.20;;
7231;SDS011;3657;49.630;11.018;2023-03-12T13:05:24;12.53;;;11.70;;
7231;SDS011;3657;49.630;11.018;2023-03-12T13:07:52;10.70;;;10.13;;
7231;SDS011;3657;49.630;11.018;2023-03-12T13:10:40;13.33;;;12.53;;
7231;SDS011;3657;49.630;11.018;2023-03-12T13:13:11;13.07;;;12.17;;
7231;SDS011;3657;49.630;11.018;2023-03-12T13:15:43;13.40;;;12.50;;
7231;SDS011;3657;49.630;11.018;2023-03-12T13:18:22;13.90;;;13.00;;
7231;SDS011;3657;49.630;11.018;2023-03-12T13:21:05;13.13;;;12.43;;
7231;SDS011;3657;49.630;11.018;2023-03-12T13:23:41;12.70;;;12.00;;
7231;SDS011;3657;49.630;11.018;2023-03-12T13:26:19;12.87;;;12.20;;
7231;SDS011;3657;49.630;11.018;2023-03-12T13:28:57;12.90;;;12.20;;
7231;SDS011;3657;49.630;11.018;2023-03-12T13:31:38;11.60;;;11.10;;
7231;SDS011;3657;49.630;11.018;2023-03-12T13:34:25;14.13;;;13.23;;
7231;SDS011;3657;49.630;11.018;2023-03-12T13:36:56;15.30;;;14.33;;
7231;SDS011;3657;49.630;11.018;2023-03-12T13:39:28;15.53;;;14.47;;
7231;SDS011;3657;49.630;11.018;2023-03-12T13:41:59;16.83;;;15.70;;
7231;SDS011;3657;49.630;11.018;2023-03-12T13:44:31;16.23;;;15.20;;
7231;SDS011;3657;49.630;11.018;2023-03-12T13:47:03;15.77;;;14.57;;
7231;SDS011;3657;49.630;11.018;2023-03-12T13:49:42;15.67;;;14.47;;
7231;SDS011;3657;49.630;11.018;2023-03-12T13:52:21;17.33;;;16.13;;
7231;SDS011;3657;49.630;11.018;2023-03-12T13:54:55;16.27;;;15.00;;
7231;SDS011;3657;49.630;11.018;2023-03-12T13:57:30;17.13;;;15.93;;
7231;SDS011;3657;49.630;11.018;2023-03-12T14:00:05;15.77;;;14.87;;
7231;SDS011;3657;49.630;11.018;2023-03-12T14:02:39;16.00;;;14.87;;
7231;SDS011;3657;49.630;11.018;2023-03-12T14:05:10;16.90;;;15.90;;
7231;SDS011;3657;49.630;11.018;2023-03-12T14:10:38;18.60;;;17.23;;
7231;SDS011;3657;49.630;11.018;2023-03-12T14:13:15;16.30;;;15.40;;
7231;SDS011;3657;49.630;11.018;2023-03-12T14:15:52;17.03;;;15.83;;
7231;SDS011;3657;49.630;11.018;2023-03-12T14:18:26;17.53;;;16.30;;
7231;SDS011;3657;49.630;11.018;2023-03-12T14:20:55;18.87;;;17.37;;
7231;SDS011;3657;49.630;11.018;2023-03-12T14:23:25;19.40;;;18.03;;
7231;SDS011;3657;49.630;11.018;2023-03-12T14:25:55;16.50;;;15.27;;
7231;SDS011;3657;49.630;11.018;2023-03-12T14:28:27;17.80;;;16.60;;
7231;SDS011;3657;49.630;11.018;2023-03-12T14:30:56;15.13;;;14.33;;
7231;SDS011;3657;49.630;11.018;2023-03-12T14:33:26;18.93;;;17.60;;
7231;SDS011;3657;49.630;11.018;2023-03-12T14:35:59;18.67;;;17.40;;
7231;SDS011;3657;49.630;11.018;2023-03-12T14:38:31;20.57;;;18.63;;
7231;SDS011;3657;49.630;11.018;2023-03-12T14:41:02;18.37;;;17.10;;
7231;SDS011;3657;49.630;11.018;2023-03-12T14:43:39;16.67;;;15.37;;
7231;SDS011;3657;49.630;11.018;2023-03-12T14:46:12;20.43;;;19.07;;
7231;SDS011;3657;49.630;11.018;2023-03-12T14:48:40;16.90;;;15.80;;
7231;SDS011;3657;49.630;11.018;2023-03-12T14:51:15;17.63;;;16.53;;
7231;SDS011;3657;49.630;11.018;2023-03-12T14:53:45;18.47;;;17.27;;
7231;SDS011;3657;49.630;11.018;2023-03-12T14:56:12;20.83;;;19.23;;
7231;SDS011;3657;49.630;11.018;2023-03-12T14:58:49;20.70;;;19.10;;
7231;SDS011;3657;49.630;11.018;2023-03-12T15:01:17;17.37;;;16.17;;